Flight Track Log - Related Links

Times and Time Zones

All times are in EDT time to prevent confusion due to time zone crossing. See the N680CF flight status page for this flight to view local times or setup timezone preferences in your user account.

Time Position Orientation Groundspeed Altitude Reporting Facility
EDT Latitude Longitude Course Direction KTS MPH feet Rate Location/Type
Thu 08:22:52 PM 40.8333 -74.1000 246° West 172 198 1,400  Level New York TRACON
Thu 08:23:46 PM 40.8167 -74.1500 246° West 198 228 1,700 1,692 Climbing New York TRACON
Thu 08:25:28 PM 40.7947 -74.2850 258° West 228 262 5,800 2,571 Climbing New York Center
Thu 08:25:52 PM 40.7833 -74.3167 245° Southwest 251 289 7,100 2,471 Climbing New York TRACON
Thu 08:27:27 PM 40.7647 -74.4506 260° West 250 288 10,700 2,962 Climbing New York Center
Thu 08:28:28 PM 40.7508 -74.5594 260° West 290 334 14,800 3,050 Climbing New York Center
Thu 08:29:27 PM 40.7367 -74.6764 261° West 311 358 16,800 2,450 Climbing New York Center
Thu 08:30:28 PM 40.7225 -74.7825 260° West 327 376 19,700 3,176 Climbing New York Center
Thu 08:31:26 PM 40.7081 -74.9019 261° West 332 382 23,100 3,344 Climbing New York Center
Thu 08:32:30 PM 40.6936 -75.0133 260° West 332 382 26,500 2,975 Climbing New York Center
Thu 08:33:27 PM 40.6669 -75.1211 252° West 321 369 29,100 2,288 Climbing New York Center
Thu 08:34:28 PM 40.6194 -75.2167 237° Southwest 313 360 31,000 1,632 Climbing New York Center
Thu 08:35:32 PM 40.5719 -75.3200 239° Southwest 319 367 32,500 1,525 Climbing New York Center
Thu 08:36:26 PM 40.5261 -75.4236 240° Southwest 329 379 34,000 1,461 Climbing New York Center
Thu 08:37:27 PM 40.4783 -75.5267 239° Southwest 329 379 35,300 1,055 Climbing New York Center
Thu 08:39:28 PM 40.3819 -75.7381 239° Southwest 334 384 37,200 967 Climbing New York Center
Thu 08:40:27 PM 40.3314 -75.8489 239° Southwest 344 396 38,200 1,041 Climbing New York Center
Thu 08:41:29 PM 40.2769 -75.9536 236° Southwest 349 402 39,300 600 Climbing New York Center
Thu 08:43:27 PM 40.1808 -76.1697 240° Southwest 346 398 40,000 236 Climbing Washington Center
Thu 08:44:27 PM 40.1261 -76.2861 238° Southwest 356 410 40,000  Level Washington Center
Thu 08:45:27 PM 40.0692 -76.4047 238° Southwest 378 435 40,000  Level Washington Center
Thu 08:46:27 PM 40.0058 -76.5394 238° Southwest 394 453 40,000  Level Washington Center
Thu 08:47:27 PM 39.9486 -76.6631 239° Southwest 399 459 40,000  Level Washington Center
Thu 08:48:27 PM 39.8975 -76.7678 238° Southwest 399 459 40,000  Level Washington Center
Thu 08:49:27 PM 39.8400 -76.8831 237° Southwest 399 459 40,000  Level Washington Center
Thu 08:50:27 PM 39.7844 -77.0036 239° Southwest 394 453 40,000  Level Washington Center
Thu 08:51:27 PM 39.7311 -77.1214 240° Southwest 383 441 40,000  Level Washington Center
Thu 08:52:27 PM 39.6775 -77.2389 239° Southwest 383 441 40,000  Level Washington Center
Thu 08:53:27 PM 39.6217 -77.3561 238° Southwest 383 441 40,000  Level Washington Center
Thu 08:54:27 PM 39.5658 -77.4706 238° Southwest 383 441 40,000  Level Washington Center
Thu 08:55:27 PM 39.5117 -77.5847 238° Southwest 383 441 40,000  Level Washington Center
Thu 08:56:27 PM 39.4511 -77.7122 238° Southwest 383 441 40,000  Level Washington Center
Thu 08:57:27 PM 39.3950 -77.8314 239° Southwest 383 441 40,000  Level Washington Center
Thu 08:58:27 PM 39.3447 -77.9506 241° Southwest 383 441 40,000  Level Washington Center
Thu 08:59:27 PM 39.2964 -78.0722 243° Southwest 383 441 40,000  Level Washington Center
Thu 09:00:27 PM 39.2481 -78.1939 243° Southwest 383 441 40,000  Level Washington Center
Thu 09:01:27 PM 39.1994 -78.3156 243° Southwest 383 441 40,000  Level Washington Center
Thu 09:02:27 PM 39.1508 -78.4394 243° Southwest 383 441 40,000  Level Washington Center
Thu 09:03:27 PM 39.1019 -78.5606 243° Southwest 383 441 40,000  Level Washington Center
Thu 09:04:27 PM 39.0531 -78.6761 241° Southwest 383 441 40,000  Level Washington Center
Thu 09:05:27 PM 39.0061 -78.7972 244° Southwest 383 441 40,000  Level Washington Center
Thu 09:06:27 PM 38.9569 -78.9178 242° Southwest 383 441 40,000  Level Washington Center
Thu 09:07:27 PM 38.9078 -79.0356 242° Southwest 383 441 40,000  Level Washington Center
Thu 09:08:27 PM 38.8606 -79.1561 243° Southwest 383 441 40,000  Level Washington Center
Thu 09:09:27 PM 38.8278 -79.2797 251° West 378 435 40,000  Level Washington Center
Thu 09:10:27 PM 38.8050 -79.4092 257° West 372 428 40,000  Level Washington Center
Thu 09:11:27 PM 38.7819 -79.5383 257° West 372 428 40,000  Level Washington Center
Thu 09:12:27 PM 38.7592 -79.6569 256° West 377 434 40,000  Level Washington Center
Thu 09:13:27 PM 38.7381 -79.7889 258° West 377 434 40,000  Level Washington Center
Thu 09:15:32 PM 38.6828 -80.0575 255° West 374 430 40,000  Level Indianapolis Center
Thu 09:16:34 PM 38.6592 -80.1856 257° West 370 426 40,000  Level Indianapolis Center
Thu 09:17:35 PM 38.6344 -80.3142 256° West 371 427 40,000  Level Indianapolis Center
Thu 09:18:36 PM 38.6100 -80.4433 256° West 373 429 40,000 98 Level Indianapolis Center
Thu 09:19:38 PM 38.5861 -80.5719 257° West 371 427 40,200 341 Climbing Indianapolis Center
Thu 09:20:39 PM 38.5722 -80.7022 262° West 370 426 40,700 492 Climbing Indianapolis Center
Thu 09:21:40 PM 38.5622 -80.8308 264° West 365 420 41,200 492 Climbing Indianapolis Center
Thu 09:22:41 PM 38.5528 -80.9572 265° West 357 411 41,700 488 Climbing Indianapolis Center
Thu 09:23:43 PM 38.5431 -81.0831 264° West 355 409 42,200 488 Climbing Indianapolis Center
Thu 09:24:44 PM 38.5331 -81.2069 264° West 352 405 42,700 393 Climbing Indianapolis Center
Thu 09:25:45 PM 38.5211 -81.3558 264° West 349 402 43,000 146 Climbing Indianapolis Center
Thu 09:26:47 PM 38.5119 -81.4847 265° West 358 412 43,000  Level Indianapolis Center
Thu 09:27:48 PM 38.5008 -81.6144 264° West 363 418 43,000  Level Indianapolis Center
Thu 09:28:49 PM 38.4903 -81.7442 264° West 364 419 43,000  Level Indianapolis Center
Thu 09:29:50 PM 38.4794 -81.8736 264° West 364 419 43,000  Level Indianapolis Center
Thu 09:30:52 PM 38.4678 -82.0014 263° West 361 415 43,000  Level Indianapolis Center
Thu 09:31:53 PM 38.4569 -82.1281 264° West 360 414 43,000  Level Indianapolis Center
Thu 09:32:54 PM 38.4464 -82.2531 264° West 355 409 43,000  Level Indianapolis Center
Thu 09:33:56 PM 38.4350 -82.3775 263° West 353 406 43,000  Level Indianapolis Center
Thu 09:34:57 PM 38.4233 -82.4964 263° West 345 397 43,000  Level Indianapolis Center
Thu 09:35:58 PM 38.4131 -82.6192 264° West 347 399 43,000  Level Indianapolis Center
Thu 09:36:59 PM 38.4000 -82.7617 263° West 347 399 43,000  Level Indianapolis Center
Thu 09:38:01 PM 38.3889 -82.8814 263° West 343 395 43,000  Level Indianapolis Center
Thu 09:39:02 PM 38.3769 -82.9997 263° West 338 389 43,000  Level Indianapolis Center
Thu 09:40:03 PM 38.3653 -83.1186 263° West 338 389 43,000  Level Indianapolis Center
Thu 09:41:05 PM 38.3542 -83.2389 263° West 341 392 43,000  Level Indianapolis Center
Thu 09:42:06 PM 38.3419 -83.3558 262° West 338 389 43,000  Level Indianapolis Center
Thu 09:43:07 PM 38.3311 -83.4747 263° West 336 387 43,000  Level Indianapolis Center
Thu 09:44:09 PM 38.3186 -83.5967 263° West 344 396 43,000  Level Indianapolis Center
Thu 09:45:10 PM 38.3047 -83.7347 263° West 339 390 43,000  Level Indianapolis Center
Thu 09:46:11 PM 38.2925 -83.8536 263° West 339 390 43,000  Level Indianapolis Center
Thu 09:47:13 PM 38.2797 -83.9750 262° West 344 396 43,000  Level Indianapolis Center
Thu 09:48:14 PM 38.2669 -84.0961 262° West 345 397 43,000  Level Indianapolis Center
Thu 09:49:15 PM 38.2550 -84.2150 263° West 342 394 43,000  Level Indianapolis Center
Thu 09:50:17 PM 38.2425 -84.3358 263° West 344 396 43,000  Level Indianapolis Center
Thu 09:51:18 PM 38.2294 -84.4553 262° West 342 394 43,000  Level Indianapolis Center
Thu 09:52:19 PM 38.2156 -84.5772 262° West 347 399 43,000  Level Indianapolis Center
Thu 09:53:20 PM 38.2000 -84.7169 262° West 343 395 43,000  Level Indianapolis Center
Thu 09:54:22 PM 38.1867 -84.8389 262° West 347 399 43,000  Level Indianapolis Center
Thu 09:55:23 PM 38.1736 -84.9617 262° West 351 404 43,000  Level Indianapolis Center
Thu 09:56:24 PM 38.1608 -85.0822 262° West 347 399 43,000  Level Indianapolis Center
Thu 09:57:26 PM 38.1472 -85.2014 262° West 356 410 43,000  Level Indianapolis Center
Thu 09:58:27 PM 38.1333 -85.3214 262° West 351 404 43,000  Level Indianapolis Center
Thu 09:59:28 PM 38.1183 -85.4444 261° West 351 404 43,000  Level Indianapolis Center
Thu 10:00:29 PM 38.1047 -85.5656 262° West 348 400 43,000  Level Indianapolis Center
Thu 10:01:31 PM 38.0961 -85.6869 265° West 346 398 43,000  Level Indianapolis Center
Thu 10:02:32 PM 38.0856 -85.8094 264° West 345 397 43,000  Level Indianapolis Center
Thu 10:03:33 PM 38.0756 -85.9561 265° West 345 397 43,000  Level Indianapolis Center
Thu 10:04:34 PM 38.0672 -86.0781 265° West 345 397 43,000 -197 Level Indianapolis Center
Thu 10:05:35 PM 38.0581 -86.2000 265° West 345 397 42,600 -488 Descending Indianapolis Center
Thu 10:06:37 PM 38.0486 -86.3258 265° West 354 407 42,000 -585 Descending Indianapolis Center
Thu 10:07:38 PM 38.0372 -86.4539 264° West 362 417 41,400 -541 Descending Indianapolis Center
Thu 10:08:39 PM 38.0278 -86.5847 265° West 369 425 40,900 -590 Descending Indianapolis Center
Thu 10:09:40 PM 38.0183 -86.7131 265° West 364 419 40,200 -836 Descending Indianapolis Center
Thu 10:10:41 PM 38.0067 -86.8400 263° West 360 414 39,200 -976 Descending Indianapolis Center
Thu 10:11:43 PM 37.9967 -86.9681 264° West 361 415 38,200 -585 Descending Indianapolis Center
Thu 10:12:44 PM 37.9861 -87.0950 264° West 358 412 38,000 -98 Descending Indianapolis Center
Thu 10:13:45 PM 37.9756 -87.2214 264° West 357 411 38,000  Level Indianapolis Center
Thu 10:14:46 PM 37.9644 -87.3464 264° West 354 407 38,000  Level Indianapolis Center
Thu 10:15:47 PM 37.9542 -87.4697 264° West 351 404 38,000  Level Indianapolis Center
Thu 10:16:48 PM 37.9433 -87.5939 264° West 353 406 38,000  Level Indianapolis Center
Thu 10:17:50 PM 37.9325 -87.7178 264° West 352 405 38,000  Level Indianapolis Center
Thu 10:18:51 PM 37.9206 -87.8425 263° West 352 405 38,000  Level Indianapolis Center
Thu 10:19:20 PM 37.9142 -87.9167 264° West 352 405 38,000  Level Kansas City Center
Thu 10:20:24 PM 37.9028 -88.0417 263° West 353 406 38,000  Level Kansas City Center
Thu 10:21:22 PM 37.8903 -88.1653 263° West 354 407 38,000  Level Kansas City Center
Thu 10:22:26 PM 37.8778 -88.2900 263° West 355 409 38,000  Level Kansas City Center
Thu 10:22:55 PM 37.8736 -88.3394 264° West 356 410 38,000  Level Indianapolis Center
Thu 10:23:26 PM 37.8647 -88.4128 261° West 353 406 38,000  Level Kansas City Center
Thu 10:24:30 PM 37.8525 -88.5364 263° West 352 405 38,000  Level Kansas City Center
Thu 10:25:30 PM 37.8417 -88.6603 264° West 353 406 38,000  Level Kansas City Center
Thu 10:26:31 PM 37.8303 -88.7747 263° West 349 402 38,000  Level Kansas City Center
Thu 10:27:32 PM 37.8181 -88.8981 263° West 352 405 38,000  Level Kansas City Center
Thu 10:28:35 PM 37.8019 -89.0442 262° West 359 413 38,000 -96 Level Kansas City Center
Thu 10:29:37 PM 37.7892 -89.1669 263° West 356 410 37,800 -488 Descending Kansas City Center
Thu 10:30:38 PM 37.7767 -89.2886 263° West 352 405 37,000 -793 Descending Kansas City Center
Thu 10:31:38 PM 37.7639 -89.4139 263° West 348 400 36,200 -496 Descending Kansas City Center
Thu 10:32:39 PM 37.7506 -89.5394 262° West 355 409 36,000 -97 Descending Kansas City Center
Thu 10:33:42 PM 37.7358 -89.6658 262° West 360 414 36,000  Level Kansas City Center
Thu 10:34:43 PM 37.7228 -89.7889 262° West 358 412 36,000  Level Kansas City Center
Thu 10:35:43 PM 37.7089 -89.9139 262° West 358 412 36,000  Level Kansas City Center
Thu 10:36:44 PM 37.6953 -90.0389 262° West 359 413 36,000  Level Kansas City Center
Thu 10:37:45 PM 37.6786 -90.1889 262° West 359 413 36,000  Level Kansas City Center
Thu 10:38:47 PM 37.6653 -90.3133 262° West 359 413 36,000  Level Kansas City Center
Thu 10:39:48 PM 37.6544 -90.4383 264° West 358 412 36,000  Level Kansas City Center
Thu 10:40:49 PM 37.6425 -90.5619 263° West 357 411 36,000  Level Kansas City Center
Thu 10:41:53 PM 37.6322 -90.6856 264° West 355 409 36,000  Level Kansas City Center
Thu 10:42:54 PM 37.6192 -90.8106 263° West 357 411 36,000  Level Kansas City Center
Thu 10:43:53 PM 37.6072 -90.9428 264° West 357 411 36,000  Level Kansas City Center
Thu 10:44:56 PM 37.5956 -91.0669 263° West 356 410 36,000  Level Kansas City Center
Thu 10:45:56 PM 37.5825 -91.1906 262° West 356 410 36,000  Level Kansas City Center
Thu 10:46:57 PM 37.5706 -91.3153 263° West 356 410 36,000  Level Kansas City Center
Thu 10:47:58 PM 37.5578 -91.4372 263° West 352 405 36,000  Level Kansas City Center
Thu 10:48:59 PM 37.5469 -91.5600 264° West 351 404 36,000  Level Kansas City Center
Thu 10:50:01 PM 37.5344 -91.6833 263° West 354 407 36,000  Level Kansas City Center
Thu 10:51:01 PM 37.5214 -91.8081 263° West 355 409 36,000  Level Kansas City Center
Thu 10:52:05 PM 37.5081 -91.9303 262° West 353 406 36,000  Level Kansas City Center
Thu 10:53:05 PM 37.4958 -92.0531 263° West 352 405 36,000  Level Kansas City Center
Thu 10:54:06 PM 37.4828 -92.1764 262° West 351 404 36,000  Level Kansas City Center
Thu 10:55:08 PM 37.4678 -92.3272 263° West 357 411 36,000  Level Kansas City Center
Thu 10:56:08 PM 37.4553 -92.4511 263° West 355 409 36,000  Level Kansas City Center
Thu 10:57:09 PM 37.4403 -92.5764 261° West 357 411 36,000  Level Kansas City Center
Thu 10:58:10 PM 37.4278 -92.7019 263° West 357 411 36,000  Level Kansas City Center
Thu 10:59:11 PM 37.4136 -92.8253 262° West 357 411 36,000  Level Kansas City Center
Thu 11:00:14 PM 37.3989 -92.9497 262° West 356 410 36,000  Level Kansas City Center
Thu 11:01:15 PM 37.3850 -93.0728 262° West 356 410 36,000  Level Kansas City Center
Thu 11:02:17 PM 37.3714 -93.1967 262° West 356 410 36,000  Level Kansas City Center
Thu 11:03:18 PM 37.3569 -93.3203 262° West 357 411 36,000  Level Kansas City Center
Thu 11:04:18 PM 37.3658 -93.4439 275° West 357 411 36,000  Level Kansas City Center
Thu 11:05:19 PM 37.3775 -93.5681 277° West 356 410 36,000  Level Kansas City Center
Thu 11:06:19 PM 37.3867 -93.6906 275° West 353 406 36,000  Level Kansas City Center
Thu 11:07:20 PM 37.3969 -93.8142 276° West 354 407 36,000  Level Kansas City Center
Thu 11:08:24 PM 37.4078 -93.9389 276° West 356 410 36,000  Level Kansas City Center
Thu 11:09:24 PM 37.4186 -94.0644 276° West 358 412 36,000  Level Kansas City Center
Thu 11:10:25 PM 37.4292 -94.2000 276° West 356 410 36,000  Level Kansas City Center
Thu 11:11:25 PM 37.4400 -94.3264 276° West 359 413 36,000  Level Kansas City Center
Thu 11:12:26 PM 37.4506 -94.4506 276° West 359 413 36,000  Level Kansas City Center
Thu 11:13:27 PM 37.4614 -94.5772 276° West 362 417 36,000  Level Kansas City Center
Thu 11:14:28 PM 37.4706 -94.7011 275° West 358 412 36,000  Level Kansas City Center
Thu 11:15:32 PM 37.4800 -94.8269 275° West 360 414 36,000  Level Kansas City Center
Thu 11:16:32 PM 37.4894 -94.9514 276° West 359 413 36,000  Level Kansas City Center
Thu 11:17:33 PM 37.5008 -95.1036 275° West 362 417 36,000 -50 Level Kansas City Center
Thu 11:18:33 PM 37.5094 -95.2292 275° West 363 418 35,900 -893 Descending Kansas City Center
Thu 11:19:34 PM 37.5181 -95.3481 275° West 351 404 34,200 -1,887 Descending Kansas City Center
Thu 11:20:37 PM 37.5281 -95.4706 276° West 350 403 32,000 -2,112 Descending Kansas City Center
Thu 11:21:39 PM 37.5364 -95.5975 275° West 357 411 29,800 -2,164 Descending Kansas City Center
Thu 11:22:39 PM 37.5458 -95.7264 275° West 365 420 27,600 -2,132 Descending Kansas City Center
Thu 11:23:40 PM 37.5539 -95.8628 274° West 379 436 25,500 -2,016 Descending Kansas City Center
Thu 11:24:41 PM 37.5608 -95.9892 274° West 370 426 23,500 -1,967 Descending Kansas City Center
Thu 11:25:42 PM 37.5706 -96.1069 276° West 349 402 21,500 -1,951 Descending Kansas City Center
Thu 11:26:44 PM 37.5772 -96.2250 274° West 340 391 19,500 -2,098 Descending Kansas City Center
Thu 11:27:45 PM 37.5847 -96.3542 274° West 317 365 17,200 -2,182 Descending Kansas City Center
Thu 11:28:45 PM 37.5922 -96.4567 275° West 299 344 15,100 -1,931 Descending Kansas City Center
Thu 11:29:12 PM 37.5947 -96.5019 274° West 306 352 14,400 -1,238 Descending Kansas City Center
Thu 11:29:48 PM 37.5967 -96.5478 273° West 303 349 13,800 -1,180 Descending Kansas City Center
Thu 11:30:13 PM 37.6017 -96.6092 276° West 303 349 13,200 -1,180 Descending Kansas City Center
Thu 11:30:49 PM 37.6036 -96.6553 273° West 307 353 12,600 -1,200 Descending Kansas City Center
Thu 11:31:13 PM 37.6064 -96.7142 273° West 306 352 12,000 -1,377 Descending Kansas City Center
Thu 11:31:50 PM 37.6147 -96.7733 280° West 287 330 11,200 -1,279 Descending Kansas City Center
Thu 11:32:14 PM 37.6242 -96.8039 291° West 254 292 10,700 -1,200 Descending Kansas City Center
Thu 11:32:50 PM 37.6350 -96.8586 284° West 257 296 10,000 -1,200 Descending Kansas City Center
Thu 11:33:14 PM 37.6392 -96.8886 280° West 243 280 9,500 -1,429 Descending Kansas City Center
Thu 11:33:53 PM 37.6517 -96.9422 286° West 247 284 8,500 -1,574 Descending Kansas City Center
Thu 11:34:15 PM 37.6561 -96.9733 280° West 247 284 7,900 -1,475 Descending Kansas City Center
Thu 11:34:54 PM 37.6694 -97.0264 288° West 247 284 7,000 -1,500 Descending Kansas City Center
Thu 11:35:15 PM 37.6750 -97.0550 284° West 244 281 6,400 -1,279 Descending Kansas City Center
Thu 11:35:55 PM 37.6864 -97.1067 286° West 240 276 5,700 -984 Descending Kansas City Center
Thu 11:36:16 PM 37.6917 -97.1369 282° West 235 270 5,400 -590 Descending Kansas City Center
Thu 11:36:56 PM 37.7017 -97.1825 286° West 227 261 5,100 -590 Descending Kansas City Center
Thu 11:37:17 PM 37.7056 -97.2139 279° West 207 238 4,800 -689 Descending Kansas City Center
Thu 11:37:57 PM 37.7153 -97.2531 287° West 218 251 4,400 -700 Descending Kansas City Center
Thu 11:38:17 PM 37.7211 -97.2856 283° West 212 244 4,100 -492 Descending Kansas City Center
Thu 11:38:58 PM 37.7294 -97.3267 284° West 215 247 3,900 -636 Descending Kansas City Center
Thu 11:39:23 PM 37.7286 -97.3611 268° West 199 229 3,400 -984 Descending Kansas City Center
Thu 11:39:59 PM 37.7178 -97.3833 238° Southwest 189 217 2,900 -1,100 Descending Kansas City Center
Thu 11:40:23 PM 37.7047 -97.3967 219° Southwest 110 127 2,300 -1,000 Descending Kansas City Center
Thu 11:40:59 PM 37.6922 -97.4050 208° Southwest 140 161 1,900 -581 Descending Kansas City Center
Thu 11:41:25 PM 37.6808 -97.4108 202° Southwest 83 96 1,700 -381 Descending Kansas City Center
Thu 11:42:02 PM 37.6700 -97.4153 198° South 109 125 1,500 -324 Descending Kansas City Center

Login

Don't have an account? Register now (free) for customized features, flight alerts, and more!